New Boston, MI (48164)

4:15 AM EDT on May 07, 2015 (GMT -0400)
KMIBROWN4 | | Change Station
CLOSE
Current Station
Personal Weather Station
Location: Brownstown, MI
Elevation: 623 ft
Nearby Weather Stations

Elev 623 ft 42.16 °N, 83.30 °W | Updated 24 seconds ago

Fog
Fog
51.4 °F
Feels Like 51.4 °F
N
0.0
Wind Variable Wind from SE
Gusts 0.0 mph

Today
High -- | Low -- °F
--% Chance of Precip.
Yesterday
High -- | Low -- °F
Precip. -- in
6:21 AM 8:38 PM
Waning Gibbous, 89% visible
Pressure 30.16 in
Visibility 2.5 miles
Clouds Few 22000 ft
Dew Point 50 °F
Humidity 95%
Rainfall 0.00 in
Snow Depth Not available.
UV 0 out of 12
Pollen 8.10 out of 12
Air Quality Not available.
Flu Activity Regional
METAR KDTW 070753Z 00000KT 2 1/2SM BR FEW220 13/12 A3016 RMK AO2 TWR VIS 4 SLP212 T01330117

More Conditions Fewer Conditions

Pressure 30.16 in
Visibility 2.5 miles
Clouds Few 22000 ft
Dew Point 50 °F
Humidity 95%
Rainfall 0.00 in
Snow Depth Not available.
UV 0 out of 12
Pollen 8.10 out of 12
Air Quality Not available.
Flu Activity Regional
METAR KDTW 070753Z 00000KT 2 1/2SM BR FEW220 13/12 A3016 RMK AO2 TWR VIS 4 SLP212 T01330117

More Conditions Fewer Conditions

10-Day Weather Forecast

Almanac

Astronomy

May. 07, 2015 Rise Set
Actual Time
Civil Twilight
Nautical Twilight
Astronomical Twilight
Moon
Length of Visible Light
Length of Day
Tomorrow will be .
, % of the Moon is Illuminated

Today's Extremes

State Highs State Lows

Community

WunderPhotos

Upload Photos

1,819,126 photos uploaded!

WunderBlogs® & News

Nearby

Air Quality

  Air Quality AQ Index Pollutant
Not available.

Snow Depth

Station Depth Elevation

Earthquake Activity

City Distance Mag. Time & Date
Minimum magnitude displayed is 2.5.

Coastal Water Temperatures

Place Temperature

Stations

Nearby Weather Stations

Station Location Temp. Windchill Dew Point Humidity Wind Precip. Elev Updated Type